createdAt,value
2023-03-21T00:01:52.611Z,100124.41
2023-03-21T00:04:20.399Z,100124.56
2023-03-21T00:06:48.037Z,100126.22
2023-03-21T00:09:15.743Z,100125.38
2023-03-21T00:11:43.629Z,100117.63
2023-03-21T00:14:14.488Z,100115.19
2023-03-21T00:16:45.771Z,100114.88
2023-03-21T00:19:16.036Z,100116.81
2023-03-21T00:21:59.608Z,100107.50
2023-03-21T00:24:32.074Z,100103.97
2023-03-21T00:27:15.871Z,100105.25
2023-03-21T00:29:49.309Z,100096.28
2023-03-21T00:32:19.856Z,100097.16
2023-03-21T00:35:38.410Z,100099.84
2023-03-21T00:37:38.455Z,100091.66
2023-03-21T00:40:16.262Z,100095.94
2023-03-21T00:42:47.315Z,100086.56
2023-03-21T00:45:16.504Z,100090.59
2023-03-21T00:47:44.214Z,100087.22
2023-03-21T00:50:14.580Z,100086.75
2023-03-21T00:52:42.504Z,100087.47
2023-03-21T00:55:14.431Z,100075.28
2023-03-21T00:57:45.352Z,100075.34
2023-03-21T01:00:17.886Z,100072.53
2023-03-21T01:03:02.784Z,100060.75
2023-03-21T01:05:55.525Z,100068.81
2023-03-21T01:08:30.998Z,100064.41
2023-03-21T01:11:05.717Z,100063.94
2023-03-21T01:13:36.341Z,100061.63
2023-03-21T01:16:06.176Z,100063.09
2023-03-21T01:18:35.682Z,100059.47
2023-03-21T01:21:08.279Z,100055.22
2023-03-21T01:23:36.389Z,100066.72
2023-03-21T01:26:04.448Z,100054.78
2023-03-21T01:28:32.772Z,100064.28
2023-03-21T01:31:02.764Z,99996.13
2023-03-21T01:33:31.426Z,100061.00
2023-03-21T01:36:11.744Z,100050.28
2023-03-21T01:38:42.469Z,100045.44
2023-03-21T01:41:36.642Z,100053.03
2023-03-21T01:44:17.148Z,100049.28
2023-03-21T01:46:57.365Z,100050.16
2023-03-21T01:49:50.649Z,100045.50
2023-03-21T01:52:35.909Z,100043.31
2023-03-21T01:55:12.523Z,100043.69
2023-03-21T01:58:08.193Z,100036.84
2023-03-21T02:00:50.065Z,100037.41
2023-03-21T02:03:35.807Z,100043.19
2023-03-21T02:06:33.542Z,100039.22
2023-03-21T02:09:14.889Z,100026.66
2023-03-21T02:11:46.521Z,100025.75
2023-03-21T02:14:26.648Z,100022.75
2023-03-21T02:17:10.361Z,100018.38
2023-03-21T02:20:16.888Z,100022.03
2023-03-21T02:23:11.542Z,100015.75
2023-03-21T02:26:18.629Z,100021.66
2023-03-21T02:28:50.407Z,99958.19
2023-03-21T02:31:34.375Z,100008.44
2023-03-21T02:34:33.502Z,100006.56
2023-03-21T02:37:17.141Z,100005.88
2023-03-21T02:39:55.688Z,100010.19
2023-03-21T02:42:30.529Z,100015.63
2023-03-21T02:45:04.341Z,100002.28
2023-03-21T02:47:40.520Z,99999.88
2023-03-21T02:50:13.205Z,99995.75
2023-03-21T02:52:45.995Z,100002.03
2023-03-21T02:55:18.915Z,100004.00
2023-03-21T02:58:12.457Z,100004.00
2023-03-21T03:00:47.380Z,100000.75
2023-03-21T03:03:33.645Z,100007.34
2023-03-21T03:06:08.533Z,100005.97
2023-03-21T03:08:56.323Z,100004.09
2023-03-21T03:11:32.424Z,100004.88
2023-03-21T03:14:36.993Z,99975.31
2023-03-21T03:17:18.545Z,99994.91
2023-03-21T03:20:04.286Z,99991.66
2023-03-21T03:22:48.065Z,99989.06
2023-03-21T03:25:32.609Z,99995.28
2023-03-21T03:28:09.265Z,99997.34
2023-03-21T03:30:44.942Z,99984.16
2023-03-21T03:33:23.348Z,99987.75
2023-03-21T03:36:04.657Z,99987.44
2023-03-21T03:38:36.696Z,99985.44
2023-03-21T03:41:11.580Z,99972.84
2023-03-21T03:43:56.976Z,99986.44
2023-03-21T03:46:33.346Z,99986.22
2023-03-21T03:49:06.981Z,99990.53
2023-03-21T03:51:41.986Z,99963.56
2023-03-21T03:54:25.423Z,99992.28
2023-03-21T03:56:55.724Z,99989.19
2023-03-21T03:59:25.018Z,99994.31
2023-03-21T04:02:20.170Z,99990.97
2023-03-21T04:04:52.828Z,99991.28
2023-03-21T04:07:21.423Z,99983.16
2023-03-21T04:09:51.880Z,99987.84
2023-03-21T04:12:22.644Z,99996.41
2023-03-21T04:15:11.071Z,99995.25
2023-03-21T04:17:45.351Z,99985.34
2023-03-21T04:20:23.629Z,99978.88
2023-03-21T04:22:58.248Z,99984.28
2023-03-21T04:25:33.981Z,99973.63
2023-03-21T04:28:05.572Z,99982.19
2023-03-21T04:31:02.522Z,99980.31
2023-03-21T04:33:41.788Z,99985.00
2023-03-21T04:36:26.328Z,99975.47
2023-03-21T04:39:00.734Z,99974.50
2023-03-21T04:41:29.639Z,99966.44
2023-03-21T04:43:59.463Z,99969.34
2023-03-21T04:46:27.157Z,99973.50
2023-03-21T04:48:55.418Z,99983.13
2023-03-21T04:51:23.358Z,99976.25
2023-03-21T04:53:52.472Z,99970.19
2023-03-21T04:56:20.365Z,99964.06
2023-03-21T04:58:48.068Z,99973.19
2023-03-21T05:01:20.775Z,99974.72
2023-03-21T05:03:49.162Z,99975.00
2023-03-21T05:06:17.014Z,99969.41
2023-03-21T05:08:45.176Z,99965.22
2023-03-21T05:11:13.483Z,99962.81
2023-03-21T05:13:41.517Z,99954.09
2023-03-21T05:16:10.166Z,99967.47
2023-03-21T05:18:39.556Z,99971.44
2023-03-21T05:21:18.015Z,99958.94
2023-03-21T05:23:54.854Z,99963.13
2023-03-21T05:26:23.961Z,99954.44
2023-03-21T05:29:12.128Z,99959.97
2023-03-21T05:31:39.894Z,99957.28
2023-03-21T05:34:13.666Z,99965.06
2023-03-21T05:36:41.637Z,99960.28
2023-03-21T05:39:11.206Z,99962.97
2023-03-21T05:41:44.122Z,99953.69
2023-03-21T05:44:11.965Z,99955.66
2023-03-21T05:46:40.774Z,99959.91
2023-03-21T05:49:08.468Z,99949.25
2023-03-21T05:51:37.972Z,99953.28
2023-03-21T05:54:06.294Z,99948.06
2023-03-21T05:56:34.818Z,99947.00
2023-03-21T05:59:05.801Z,99952.47
2023-03-21T06:01:38.884Z,99955.13
2023-03-21T06:04:11.980Z,99959.59
2023-03-21T06:06:42.076Z,99961.56
2023-03-21T06:09:09.882Z,99961.25
2023-03-21T06:11:48.274Z,99967.47
2023-03-21T06:14:35.573Z,99965.13
2023-03-21T06:17:15.821Z,99970.84
2023-03-21T06:19:51.907Z,99968.63
2023-03-21T06:22:31.262Z,99973.91
2023-03-21T06:24:59.149Z,99969.81
2023-03-21T06:27:27.963Z,99971.78
2023-03-21T06:29:57.942Z,99974.31
2023-03-21T06:32:25.878Z,99969.66
2023-03-21T06:34:58.757Z,99937.81
2023-03-21T06:37:27.364Z,99971.25
2023-03-21T06:39:57.024Z,99977.66
2023-03-21T06:42:26.227Z,99982.94
2023-03-21T06:44:59.802Z,99986.25
2023-03-21T06:47:28.363Z,99980.06
2023-03-21T06:49:56.525Z,99982.09
2023-03-21T06:52:24.226Z,99987.50
2023-03-21T06:54:54.462Z,99971.75
2023-03-21T06:57:24.052Z,99991.09
2023-03-21T06:59:51.776Z,99990.25
2023-03-21T07:02:21.826Z,99971.88
2023-03-21T07:05:08.503Z,99986.28
2023-03-21T07:07:37.399Z,99991.19
2023-03-21T07:10:06.288Z,99989.41
2023-03-21T07:12:44.365Z,99992.31
2023-03-21T07:15:17.468Z,99993.69
2023-03-21T07:17:46.652Z,99991.81
2023-03-21T07:20:14.419Z,99997.72
2023-03-21T07:22:42.503Z,99996.19
2023-03-21T07:25:11.402Z,99992.69
2023-03-21T07:27:41.392Z,99995.47
2023-03-21T07:30:12.341Z,99978.44
2023-03-21T07:32:40.353Z,99989.91
2023-03-21T07:35:09.792Z,99986.00
2023-03-21T07:37:38.298Z,99980.09
2023-03-21T07:40:10.498Z,99977.34
2023-03-21T07:42:40.329Z,99984.06
2023-03-21T07:45:14.455Z,99902.00
2023-03-21T07:47:43.001Z,99985.66
2023-03-21T07:50:11.351Z,99985.63
2023-03-21T07:52:39.444Z,99983.63
2023-03-21T07:55:07.617Z,99990.34
2023-03-21T07:57:35.520Z,99988.34
2023-03-21T08:00:05.255Z,100000.16
2023-03-21T08:02:41.803Z,99993.50
2023-03-21T08:05:11.523Z,99997.47
2023-03-21T08:07:39.259Z,99999.81
2023-03-21T08:10:08.259Z,99999.81
2023-03-21T08:12:35.972Z,99996.25
2023-03-21T08:15:03.642Z,100000.63
2023-03-21T08:17:31.606Z,100001.41
2023-03-21T08:20:00.591Z,99997.09
2023-03-21T08:22:28.248Z,99992.75
2023-03-21T08:24:55.857Z,99993.53
2023-03-21T08:27:23.801Z,99984.84
2023-03-21T08:29:51.433Z,99988.75
2023-03-21T08:32:19.988Z,99978.88
2023-03-21T08:34:47.735Z,99980.81
2023-03-21T08:37:16.647Z,99984.66
2023-03-21T08:39:44.459Z,99960.78
2023-03-21T08:42:12.116Z,99981.13
2023-03-21T08:44:41.440Z,99991.03
2023-03-21T08:47:09.217Z,99985.81
2023-03-21T08:49:37.228Z,99957.63
2023-03-21T08:52:06.132Z,99989.72
2023-03-21T08:54:35.258Z,99966.63
2023-03-21T08:57:03.122Z,99995.81
2023-03-21T08:59:30.889Z,99987.22
2023-03-21T09:01:58.697Z,99986.06
2023-03-21T09:04:26.989Z,99982.94
2023-03-21T09:06:56.189Z,99968.84
2023-03-21T09:09:23.941Z,99980.25
2023-03-21T09:11:52.913Z,99976.66
2023-03-21T09:14:23.844Z,99979.78
2023-03-21T09:16:56.114Z,99980.47
2023-03-21T09:19:24.220Z,99988.94
2023-03-21T09:21:53.142Z,99982.38
2023-03-21T09:24:21.929Z,99980.44
2023-03-21T09:26:51.067Z,99978.16
2023-03-21T09:29:21.339Z,99976.59
2023-03-21T09:31:49.742Z,99973.78
2023-03-21T09:34:17.712Z,99970.97
2023-03-21T09:36:48.277Z,99981.34
2023-03-21T09:39:16.158Z,99981.00
2023-03-21T09:42:02.674Z,99978.06
2023-03-21T09:44:44.521Z,99978.34
2023-03-21T09:47:20.654Z,99985.16
2023-03-21T09:49:56.617Z,99981.22
2023-03-21T09:52:32.141Z,99985.75
2023-03-21T09:55:00.032Z,99975.50
2023-03-21T09:57:34.753Z,99977.56
2023-03-21T10:00:11.336Z,99982.00
2023-03-21T10:02:41.534Z,99980.84
2023-03-21T10:05:17.658Z,99985.28
2023-03-21T10:07:50.829Z,99975.66
2023-03-21T10:10:21.720Z,99981.88
2023-03-21T10:12:51.347Z,99984.25
2023-03-21T10:15:23.767Z,99962.88
2023-03-21T10:18:00.602Z,99978.47
2023-03-21T10:20:32.449Z,99986.13
2023-03-21T10:23:02.406Z,99976.34
2023-03-21T10:25:34.643Z,99981.44
2023-03-21T10:28:04.431Z,99976.34
2023-03-21T10:30:45.197Z,99981.91
2023-03-21T10:33:16.592Z,99966.06
2023-03-21T10:35:47.491Z,99973.00
2023-03-21T10:38:18.503Z,99943.72
2023-03-21T10:40:46.917Z,99961.88
2023-03-21T10:43:21.667Z,99970.88
2023-03-21T10:45:50.776Z,99959.72
2023-03-21T10:48:18.773Z,99952.84
2023-03-21T10:50:49.977Z,99954.63
2023-03-21T10:53:21.733Z,99956.81
2023-03-21T10:55:52.977Z,99944.75
2023-03-21T10:58:27.259Z,99939.09
2023-03-21T11:00:59.117Z,99952.59
2023-03-21T11:03:31.256Z,99946.81
2023-03-21T11:06:04.000Z,99942.38
2023-03-21T11:08:32.014Z,99946.38
2023-03-21T11:11:04.016Z,99950.97
2023-03-21T11:13:37.825Z,99946.94
2023-03-21T11:16:09.933Z,99940.94
2023-03-21T11:18:43.877Z,99945.69
2023-03-21T11:21:14.283Z,99952.41
2023-03-21T11:23:46.952Z,99944.91
2023-03-21T11:26:23.909Z,99944.81
2023-03-21T11:28:52.481Z,99940.13
2023-03-21T11:31:24.727Z,99943.22
2023-03-21T11:33:56.822Z,99932.00
2023-03-21T11:36:35.104Z,99929.66
2023-03-21T11:39:14.403Z,99929.78
2023-03-21T11:41:43.690Z,99935.00
2023-03-21T11:44:30.944Z,99930.22
2023-03-21T11:47:00.678Z,99922.22
2023-03-21T11:49:28.966Z,99928.53
2023-03-21T11:52:07.388Z,99927.38
2023-03-21T11:54:53.343Z,99915.28
2023-03-21T11:57:29.560Z,99917.13
2023-03-21T12:00:06.051Z,99915.59
2023-03-21T12:03:07.895Z,99909.31
2023-03-21T12:05:37.897Z,99901.28
2023-03-21T12:08:18.070Z,99902.56
2023-03-21T12:10:53.561Z,99891.78
2023-03-21T12:13:33.135Z,99886.59
2023-03-21T12:16:14.527Z,99877.94
2023-03-21T12:19:01.495Z,99870.03
2023-03-21T12:21:35.868Z,99874.19
2023-03-21T12:24:09.923Z,99861.66
2023-03-21T12:26:44.728Z,99859.72
2023-03-21T12:29:37.377Z,99858.66
2023-03-21T12:32:18.307Z,99862.53
2023-03-21T12:35:00.466Z,99863.34
2023-03-21T12:37:34.120Z,99864.25
2023-03-21T12:40:10.206Z,99864.00
2023-03-21T12:42:57.385Z,99856.22
2023-03-21T12:45:37.321Z,99849.47
2023-03-21T12:48:22.130Z,99840.00
2023-03-21T12:50:54.768Z,99834.25
2023-03-21T12:53:36.988Z,99835.25
2023-03-21T12:56:10.241Z,99832.03
2023-03-21T12:58:46.558Z,99829.59
2023-03-21T13:01:17.662Z,99836.75
2023-03-21T13:03:50.987Z,99831.22
2023-03-21T13:06:23.721Z,99835.13
2023-03-21T13:08:57.503Z,99828.88
2023-03-21T13:11:28.475Z,99822.41
2023-03-21T13:14:02.175Z,99815.69
2023-03-21T13:16:34.328Z,99810.53
2023-03-21T13:19:12.589Z,99812.84
2023-03-21T13:21:52.024Z,99809.91
2023-03-21T13:24:25.886Z,99801.00
2023-03-21T13:27:01.352Z,99804.34
2023-03-21T13:29:32.689Z,99803.16
2023-03-21T13:32:09.877Z,99801.88
2023-03-21T13:34:40.089Z,99794.06
2023-03-21T13:37:16.448Z,99786.09
2023-03-21T13:39:46.333Z,99789.03
2023-03-21T13:42:22.404Z,99794.47
2023-03-21T13:44:56.801Z,99790.03
2023-03-21T13:47:32.991Z,99791.03
2023-03-21T13:50:22.629Z,99787.66
2023-03-21T13:53:33.383Z,99782.81
2023-03-21T13:56:25.478Z,99778.84
2023-03-21T13:59:01.874Z,99769.53
2023-03-21T14:01:34.539Z,99775.09
2023-03-21T14:04:10.857Z,99766.19
2023-03-21T14:06:44.307Z,99770.69
2023-03-21T14:09:19.830Z,99766.75
2023-03-21T14:11:49.957Z,99756.50
2023-03-21T14:14:18.159Z,99742.94
2023-03-21T14:16:45.850Z,99758.31
2023-03-21T14:19:13.713Z,99746.94
2023-03-21T14:21:50.207Z,99750.88
2023-03-21T14:24:19.115Z,99748.94
2023-03-21T14:26:50.584Z,99740.25
2023-03-21T14:29:26.432Z,99746.25
2023-03-21T14:31:56.162Z,99747.66
2023-03-21T14:34:24.895Z,99742.66
2023-03-21T14:36:58.088Z,99741.59
2023-03-21T14:39:30.851Z,99732.91
2023-03-21T14:42:06.061Z,99738.84
2023-03-21T14:44:51.032Z,99744.75
2023-03-21T14:47:23.962Z,99730.16
2023-03-21T14:49:52.156Z,99733.31
2023-03-21T14:52:24.758Z,99732.16
2023-03-21T14:54:53.654Z,99730.19
2023-03-21T14:57:26.009Z,99731.78
2023-03-21T14:59:56.180Z,99729.41
2023-03-21T15:02:27.555Z,99718.38
2023-03-21T15:04:58.118Z,99715.22
2023-03-21T15:07:29.494Z,99716.81
2023-03-21T15:09:59.181Z,99700.25
2023-03-21T15:12:28.463Z,99675.44
2023-03-21T15:14:56.928Z,99651.03
2023-03-21T15:17:25.794Z,99647.47
2023-03-21T15:19:53.568Z,99651.78
2023-03-21T15:22:28.881Z,99646.66
2023-03-21T15:25:01.988Z,99688.03
2023-03-21T15:27:34.086Z,99693.94
2023-03-21T15:30:02.041Z,99698.25
2023-03-21T15:32:30.328Z,99696.69
2023-03-21T15:35:07.621Z,99704.22
2023-03-21T15:37:37.784Z,99696.31
2023-03-21T15:40:11.293Z,99690.81
2023-03-21T15:42:41.667Z,99701.81
2023-03-21T15:45:19.628Z,99682.50
2023-03-21T15:47:56.544Z,99677.38
2023-03-21T15:50:33.308Z,99677.34
2023-03-21T15:53:03.744Z,99685.63
2023-03-21T15:55:37.062Z,99687.63
2023-03-21T15:58:12.957Z,99672.25
2023-03-21T16:00:43.754Z,99676.97
2023-03-21T16:03:17.538Z,99666.75
2023-03-21T16:06:04.050Z,99656.13
2023-03-21T16:08:35.719Z,99652.97
2023-03-21T16:11:14.943Z,99632.09
2023-03-21T16:13:44.017Z,99626.59
2023-03-21T16:16:17.276Z,99628.53
2023-03-21T16:18:45.305Z,99634.06
2023-03-21T16:21:13.693Z,99651.41
2023-03-21T16:23:41.847Z,99651.41
2023-03-21T16:26:12.801Z,99667.16
2023-03-21T16:28:40.506Z,99672.25
2023-03-21T16:31:14.140Z,99686.03
2023-03-21T16:33:42.241Z,99688.78
2023-03-21T16:36:14.002Z,99686.41
2023-03-21T16:38:41.701Z,99680.50
2023-03-21T16:41:11.605Z,99683.63
2023-03-21T16:43:42.981Z,99689.97
2023-03-21T16:46:14.915Z,99691.09
2023-03-21T16:48:45.431Z,99690.31
2023-03-21T16:51:14.820Z,99696.63
2023-03-21T16:53:42.827Z,99687.56
2023-03-21T16:56:16.192Z,99686.78
2023-03-21T16:58:44.477Z,99678.50
2023-03-21T17:01:16.454Z,99671.38
2023-03-21T17:03:44.166Z,99672.59
2023-03-21T17:06:15.964Z,99675.34
2023-03-21T17:08:43.987Z,99673.75
2023-03-21T17:11:12.520Z,99680.84
2023-03-21T17:13:40.441Z,99671.78
2023-03-21T17:16:08.706Z,99669.81
2023-03-21T17:18:37.843Z,99670.97
2023-03-21T17:21:12.837Z,99682.34
2023-03-21T17:23:40.632Z,99686.19
2023-03-21T17:26:10.577Z,99679.91
2023-03-21T17:28:39.149Z,99677.94
2023-03-21T17:31:13.490Z,99678.28
2023-03-21T17:33:43.184Z,99694.38
2023-03-21T17:36:15.196Z,99683.34
2023-03-21T17:38:42.892Z,99683.31
2023-03-21T17:41:12.790Z,99673.41
2023-03-21T17:43:41.000Z,99674.13
2023-03-21T17:46:13.935Z,99670.50
2023-03-21T17:48:43.876Z,99668.19
2023-03-21T17:51:14.578Z,99677.50
2023-03-21T17:53:42.538Z,99678.69
2023-03-21T17:56:14.826Z,99671.22
2023-03-21T17:58:42.644Z,99673.94
2023-03-21T18:01:10.395Z,99666.88
2023-03-21T18:03:38.061Z,99663.34
2023-03-21T18:06:08.187Z,99660.91
2023-03-21T18:08:35.925Z,99656.94
2023-03-21T18:11:03.642Z,99654.16
2023-03-21T18:13:31.295Z,99658.81
2023-03-21T18:15:59.751Z,99659.59
2023-03-21T18:18:28.101Z,99682.69
2023-03-21T18:20:58.040Z,99681.97
2023-03-21T18:23:27.725Z,99668.66
2023-03-21T18:25:55.525Z,99672.41
2023-03-21T18:28:23.605Z,99674.66
2023-03-21T18:31:08.622Z,99673.94
2023-03-21T18:33:40.314Z,99680.25
2023-03-21T18:36:09.134Z,99689.81
2023-03-21T18:38:38.557Z,99677.00
2023-03-21T18:41:07.545Z,99674.16
2023-03-21T18:46:25.133Z,99688.09
2023-03-21T18:48:52.766Z,99685.53
2023-03-21T18:51:21.701Z,99680.88
2023-03-21T18:53:51.387Z,99693.03
2023-03-21T18:57:05.914Z,99680.31
2023-03-21T18:59:08.659Z,99700.91
2023-03-21T19:01:36.536Z,99700.56
2023-03-21T19:06:52.936Z,99690.84
2023-03-21T19:09:29.659Z,99692.13
2023-03-21T19:11:59.886Z,99686.69
2023-03-21T19:14:28.390Z,99695.03
2023-03-21T19:19:46.592Z,99706.50
2023-03-21T19:22:14.481Z,99704.56
2023-03-21T19:24:44.390Z,99705.72
2023-03-21T19:27:13.186Z,99706.91
2023-03-21T19:29:40.794Z,99700.25
2023-03-21T19:32:08.809Z,99701.81
2023-03-21T19:34:36.701Z,99708.50
2023-03-21T19:37:04.786Z,99708.50
2023-03-21T19:39:32.517Z,99711.25
2023-03-21T19:42:15.567Z,99714.03
2023-03-21T19:44:44.764Z,99723.06
2023-03-21T19:47:12.802Z,99717.53
2023-03-21T19:52:29.198Z,99720.28
2023-03-21T19:54:57.001Z,99718.34
2023-03-21T19:57:26.245Z,99711.25
2023-03-21T19:59:54.935Z,99709.63
2023-03-21T20:02:35.144Z,99703.72
2023-03-21T20:05:03.916Z,99700.94
2023-03-21T20:07:32.696Z,99708.00
2023-03-21T20:10:01.074Z,99711.59
2023-03-21T20:12:30.653Z,99708.00
2023-03-21T20:15:09.574Z,99701.69
2023-03-21T20:17:43.396Z,99702.88
2023-03-21T20:20:14.873Z,99683.94
2023-03-21T20:23:05.693Z,99690.97
2023-03-21T20:25:31.207Z,99697.34
2023-03-21T20:28:15.140Z,99711.53
2023-03-21T20:30:47.993Z,99711.91
2023-03-21T20:33:15.755Z,99720.13
2023-03-21T20:36:29.465Z,99715.38
2023-03-21T20:38:32.203Z,99714.19
2023-03-21T20:41:00.399Z,99720.53
2023-03-21T20:44:20.398Z,99713.44
2023-03-21T20:46:17.527Z,99719.00
2023-03-21T20:48:48.699Z,99715.81
2023-03-21T20:52:14.735Z,99717.47
2023-03-21T20:54:05.109Z,99718.63
2023-03-21T20:56:32.801Z,99722.19
2023-03-21T20:59:15.719Z,99721.38
2023-03-21T21:01:45.536Z,99716.69
2023-03-21T21:04:19.279Z,99709.56
2023-03-21T21:06:47.667Z,99697.78
2023-03-21T21:09:15.474Z,99689.94
2023-03-21T21:12:06.050Z,99696.28
2023-03-21T21:14:32.227Z,99652.16
2023-03-21T21:17:04.950Z,99691.91
2023-03-21T21:19:40.196Z,99699.00
2023-03-21T21:22:07.811Z,99689.56
2023-03-21T21:24:35.564Z,99697.47
2023-03-21T21:27:03.244Z,99690.75
2023-03-21T21:29:32.543Z,99690.41
2023-03-21T21:32:02.319Z,99696.31
2023-03-21T21:34:30.371Z,99686.06
2023-03-21T21:36:58.075Z,99697.47
2023-03-21T21:39:26.550Z,99698.25
2023-03-21T21:41:54.636Z,99709.22
2023-03-21T21:44:22.381Z,99709.56
2023-03-21T21:46:51.407Z,99703.31
2023-03-21T21:49:19.074Z,99712.25
2023-03-21T21:51:48.038Z,99700.94
2023-03-21T21:54:18.222Z,99699.78
2023-03-21T21:56:48.290Z,99702.53
2023-03-21T21:59:17.044Z,99697.44
2023-03-21T22:01:46.557Z,99703.38
2023-03-21T22:04:17.928Z,99697.50
2023-03-21T22:06:47.521Z,99701.84
2023-03-21T22:09:15.683Z,99714.00
2023-03-21T22:11:43.817Z,99695.88
2023-03-21T22:14:11.406Z,99698.25
2023-03-21T22:16:39.089Z,99701.03
2023-03-21T22:19:06.786Z,99698.69
2023-03-21T22:21:35.815Z,99709.69
2023-03-21T22:24:03.596Z,99711.63
2023-03-21T22:26:31.358Z,99709.66
2023-03-21T22:28:59.886Z,99700.16
2023-03-21T22:31:27.536Z,99693.88
2023-03-21T22:33:55.300Z,99696.34
2023-03-21T22:36:22.905Z,99608.09
2023-03-21T22:38:51.863Z,99690.00
2023-03-21T22:41:19.901Z,99605.34
2023-03-21T22:43:47.535Z,99686.06
2023-03-21T22:46:15.508Z,99684.47
2023-03-21T22:48:43.442Z,99688.03
2023-03-21T22:51:11.261Z,99697.88
2023-03-21T22:53:38.873Z,99692.34
2023-03-21T22:56:09.420Z,99688.81
2023-03-21T22:58:37.066Z,99701.34
2023-03-21T23:01:05.182Z,99697.03
2023-03-21T23:03:33.332Z,99689.16
2023-03-21T23:06:02.091Z,99692.69
2023-03-21T23:08:29.870Z,99691.13
2023-03-21T23:10:57.527Z,99692.69
2023-03-21T23:13:27.906Z,99682.03
2023-03-21T23:15:55.705Z,99687.19
2023-03-21T23:18:23.345Z,99688.41
2023-03-21T23:20:51.332Z,99684.84
2023-03-21T23:23:18.963Z,99685.22
2023-03-21T23:25:46.813Z,99686.03
2023-03-21T23:28:14.416Z,99681.66
2023-03-21T23:30:43.682Z,99686.00
2023-03-21T23:33:11.526Z,99672.63
2023-03-21T23:35:39.300Z,99674.56
2023-03-21T23:38:07.005Z,99677.69
2023-03-21T23:40:34.615Z,99668.72
2023-03-21T23:43:02.260Z,99671.44
2023-03-21T23:45:29.953Z,99681.66
2023-03-21T23:47:58.963Z,99671.00
2023-03-21T23:50:26.732Z,99668.66
2023-03-21T23:52:54.626Z,99671.03
2023-03-21T23:55:22.250Z,99668.25
2023-03-21T23:57:58.711Z,99671.41
